sensor_id;sensor_type;location;lat;lon;timestamp;temperature;humidity
4699;DHT22;33708;49.466;11.176;2022-12-18T00:01:21;-10.70;1.00
4699;DHT22;33708;49.466;11.176;2022-12-18T00:03:47;-10.70;1.00
4699;DHT22;33708;49.466;11.176;2022-12-18T00:06:13;-10.60;1.00
4699;DHT22;33708;49.466;11.176;2022-12-18T00:08:39;-10.60;1.00
4699;DHT22;33708;49.466;11.176;2022-12-18T00:11:07;-10.60;1.00
4699;DHT22;33708;49.466;11.176;2022-12-18T00:13:33;-10.40;1.00
4699;DHT22;33708;49.466;11.176;2022-12-18T00:16:05;-10.40;1.00
4699;DHT22;33708;49.466;11.176;2022-12-18T00:18:31;-10.60;1.00
4699;DHT22;33708;49.466;11.176;2022-12-18T00:21:02;-10.90;1.00
4699;DHT22;33708;49.466;11.176;2022-12-18T00:23:29;-11.10;1.00
4699;DHT22;33708;49.466;11.176;2022-12-18T00:25:58;-11.00;1.00
4699;DHT22;33708;49.466;11.176;2022-12-18T00:28:23;-11.20;1.00
4699;DHT22;33708;49.466;11.176;2022-12-18T00:30:49;-11.30;1.00
4699;DHT22;33708;49.466;11.176;2022-12-18T00:33:17;-11.30;1.00
4699;DHT22;33708;49.466;11.176;2022-12-18T00:35:43;-11.40;1.00
4699;DHT22;33708;49.466;11.176;2022-12-18T00:38:08;-11.40;1.00
4699;DHT22;33708;49.466;11.176;2022-12-18T00:40:34;-11.50;1.00
4699;DHT22;33708;49.466;11.176;2022-12-18T00:42:59;-11.50;1.00
4699;DHT22;33708;49.466;11.176;2022-12-18T00:45:27;-11.30;1.00
4699;DHT22;33708;49.466;11.176;2022-12-18T00:47:54;-11.50;1.00
4699;DHT22;33708;49.466;11.176;2022-12-18T00:50:20;-11.60;1.00
4699;DHT22;33708;49.466;11.176;2022-12-18T00:52:46;-11.50;1.00
4699;DHT22;33708;49.466;11.176;2022-12-18T00:55:12;-11.20;1.00
4699;DHT22;33708;49.466;11.176;2022-12-18T00:57:38;-11.20;1.00
4699;DHT22;33708;49.466;11.176;2022-12-18T01:00:05;-11.00;1.00
4699;DHT22;33708;49.466;11.176;2022-12-18T01:02:31;-11.00;1.00
4699;DHT22;33708;49.466;11.176;2022-12-18T01:04:57;-10.90;1.00
4699;DHT22;33708;49.466;11.176;2022-12-18T01:07:23;-11.20;1.00
4699;DHT22;33708;49.466;11.176;2022-12-18T01:09:48;-11.30;1.00
4699;DHT22;33708;49.466;11.176;2022-12-18T01:12:14;-11.50;1.00
4699;DHT22;33708;49.466;11.176;2022-12-18T01:14:40;-11.50;1.00
4699;DHT22;33708;49.466;11.176;2022-12-18T01:17:05;-10.80;1.00
4699;DHT22;33708;49.466;11.176;2022-12-18T01:19:33;-11.10;1.00
4699;DHT22;33708;49.466;11.176;2022-12-18T01:21:59;-11.10;1.00
4699;DHT22;33708;49.466;11.176;2022-12-18T01:24:26;-10.90;1.00
4699;DHT22;33708;49.466;11.176;2022-12-18T01:26:53;-11.00;1.00
4699;DHT22;33708;49.466;11.176;2022-12-18T01:29:21;-11.00;1.00
4699;DHT22;33708;49.466;11.176;2022-12-18T01:31:49;-11.20;1.00
4699;DHT22;33708;49.466;11.176;2022-12-18T01:34:17;-11.60;1.00
4699;DHT22;33708;49.466;11.176;2022-12-18T01:36:45;-11.60;1.00
4699;DHT22;33708;49.466;11.176;2022-12-18T01:39:14;-11.40;1.00
4699;DHT22;33708;49.466;11.176;2022-12-18T01:41:42;-11.50;1.00
4699;DHT22;33708;49.466;11.176;2022-12-18T01:49:53;-11.50;1.00
4699;DHT22;33708;49.466;11.176;2022-12-18T01:52:28;-11.30;1.00
4699;DHT22;33708;49.466;11.176;2022-12-18T01:54:58;-10.70;1.00
4699;DHT22;33708;49.466;11.176;2022-12-18T01:57:32;-11.50;1.00
4699;DHT22;33708;49.466;11.176;2022-12-18T02:00:14;-11.60;1.00
4699;DHT22;33708;49.466;11.176;2022-12-18T02:02:43;-11.60;1.00
4699;DHT22;33708;49.466;11.176;2022-12-18T02:05:17;-11.50;1.00
4699;DHT22;33708;49.466;11.176;2022-12-18T02:08:07;-11.30;1.00
4699;DHT22;33708;49.466;11.176;2022-12-18T02:16:25;-11.70;1.00
4699;DHT22;33708;49.466;11.176;2022-12-18T02:18:59;-11.70;1.00
4699;DHT22;33708;49.466;11.176;2022-12-18T02:26:53;-11.90;1.00
4699;DHT22;33708;49.466;11.176;2022-12-18T02:29:43;-11.80;1.00
4699;DHT22;33708;49.466;11.176;2022-12-18T02:32:15;-11.80;1.00
4699;DHT22;33708;49.466;11.176;2022-12-18T02:34:42;-11.70;1.00
4699;DHT22;33708;49.466;11.176;2022-12-18T02:37:12;-11.70;1.00
4699;DHT22;33708;49.466;11.176;2022-12-18T02:39:41;-11.70;1.00
4699;DHT22;33708;49.466;11.176;2022-12-18T02:42:08;-11.50;1.00
4699;DHT22;33708;49.466;11.176;2022-12-18T02:44:48;-11.60;1.00
4699;DHT22;33708;49.466;11.176;2022-12-18T02:47:18;-11.40;1.00
4699;DHT22;33708;49.466;11.176;2022-12-18T02:52:53;-11.80;1.00
4699;DHT22;33708;49.466;11.176;2022-12-18T02:55:52;-11.70;1.00
4699;DHT22;33708;49.466;11.176;2022-12-18T02:58:34;-11.50;1.00
4699;DHT22;33708;49.466;11.176;2022-12-18T03:04:16;-11.40;1.00
4699;DHT22;33708;49.466;11.176;2022-12-18T03:06:48;-11.50;1.00
4699;DHT22;33708;49.466;11.176;2022-12-18T03:09:19;-11.60;1.00
4699;DHT22;33708;49.466;11.176;2022-12-18T03:11:53;-11.80;1.00
4699;DHT22;33708;49.466;11.176;2022-12-18T03:14:40;-11.40;1.00
4699;DHT22;33708;49.466;11.176;2022-12-18T03:17:10;-11.20;1.00
4699;DHT22;33708;49.466;11.176;2022-12-18T03:19:38;-11.20;1.00
4699;DHT22;33708;49.466;11.176;2022-12-18T03:22:05;-9.80;1.00
4699;DHT22;33708;49.466;11.176;2022-12-18T03:24:31;-11.00;1.00
4699;DHT22;33708;49.466;11.176;2022-12-18T03:27:02;-10.90;1.00
4699;DHT22;33708;49.466;11.176;2022-12-18T03:29:48;-10.50;1.00
4699;DHT22;33708;49.466;11.176;2022-12-18T03:32:30;-10.00;1.00
4699;DHT22;33708;49.466;11.176;2022-12-18T03:35:00;-10.20;1.00
4699;DHT22;33708;49.466;11.176;2022-12-18T03:37:30;-9.80;1.00
4699;DHT22;33708;49.466;11.176;2022-12-18T03:39:58;-10.10;1.00
4699;DHT22;33708;49.466;11.176;2022-12-18T03:45:31;-9.80;1.00
4699;DHT22;33708;49.466;11.176;2022-12-18T03:48:05;-9.90;1.00
4699;DHT22;33708;49.466;11.176;2022-12-18T03:50:44;-9.90;1.00
4699;DHT22;33708;49.466;11.176;2022-12-18T03:56:04;-10.00;1.00
4699;DHT22;33708;49.466;11.176;2022-12-18T03:58:32;-9.80;1.00
4699;DHT22;33708;49.466;11.176;2022-12-18T04:01:02;-9.70;1.00
4699;DHT22;33708;49.466;11.176;2022-12-18T04:03:31;-9.70;1.00
4699;DHT22;33708;49.466;11.176;2022-12-18T04:05:58;-9.60;1.00
4699;DHT22;33708;49.466;11.176;2022-12-18T04:08:25;-9.60;1.00
4699;DHT22;33708;49.466;11.176;2022-12-18T04:10:51;-9.50;1.00
4699;DHT22;33708;49.466;11.176;2022-12-18T04:13:32;-9.60;1.00
4699;DHT22;33708;49.466;11.176;2022-12-18T04:15:59;-9.60;1.00
4699;DHT22;33708;49.466;11.176;2022-12-18T04:18:25;-9.40;1.00
4699;DHT22;33708;49.466;11.176;2022-12-18T04:20:51;-9.00;1.00
4699;DHT22;33708;49.466;11.176;2022-12-18T04:23:16;-9.00;1.00
4699;DHT22;33708;49.466;11.176;2022-12-18T04:25:42;-8.70;1.00
4699;DHT22;33708;49.466;11.176;2022-12-18T04:28:08;-8.60;1.00
4699;DHT22;33708;49.466;11.176;2022-12-18T04:30:33;-8.40;1.00
4699;DHT22;33708;49.466;11.176;2022-12-18T04:32:59;-8.50;1.00
4699;DHT22;33708;49.466;11.176;2022-12-18T04:35:25;-8.50;1.00
4699;DHT22;33708;49.466;11.176;2022-12-18T04:37:50;-8.70;1.00
4699;DHT22;33708;49.466;11.176;2022-12-18T04:40:16;-8.70;1.00
4699;DHT22;33708;49.466;11.176;2022-12-18T04:42:42;-9.00;1.00
4699;DHT22;33708;49.466;11.176;2022-12-18T04:45:08;-8.40;1.00
4699;DHT22;33708;49.466;11.176;2022-12-18T04:47:34;-8.40;1.00
4699;DHT22;33708;49.466;11.176;2022-12-18T04:49:59;-8.40;1.00
4699;DHT22;33708;49.466;11.176;2022-12-18T04:52:25;-8.20;1.00
4699;DHT22;33708;49.466;11.176;2022-12-18T04:54:54;-8.60;1.00
4699;DHT22;33708;49.466;11.176;2022-12-18T04:57:19;-8.50;1.00
4699;DHT22;33708;49.466;11.176;2022-12-18T04:59:45;-8.40;1.00
4699;DHT22;33708;49.466;11.176;2022-12-18T05:02:11;-8.40;1.00
4699;DHT22;33708;49.466;11.176;2022-12-18T05:04:36;-8.20;1.00
4699;DHT22;33708;49.466;11.176;2022-12-18T05:07:02;-8.10;1.00
4699;DHT22;33708;49.466;11.176;2022-12-18T05:09:28;-8.10;1.00
4699;DHT22;33708;49.466;11.176;2022-12-18T05:11:56;-8.10;1.00
4699;DHT22;33708;49.466;11.176;2022-12-18T05:14:22;-7.80;1.00
4699;DHT22;33708;49.466;11.176;2022-12-18T05:16:48;-7.90;1.00
4699;DHT22;33708;49.466;11.176;2022-12-18T05:19:14;-8.00;1.00
4699;DHT22;33708;49.466;11.176;2022-12-18T05:21:39;-7.90;1.00
4699;DHT22;33708;49.466;11.176;2022-12-18T05:24:05;-8.00;1.00
4699;DHT22;33708;49.466;11.176;2022-12-18T05:26:31;-7.90;1.00
4699;DHT22;33708;49.466;11.176;2022-12-18T05:28:57;-7.80;1.00
4699;DHT22;33708;49.466;11.176;2022-12-18T05:31:22;-7.80;1.00
4699;DHT22;33708;49.466;11.176;2022-12-18T05:33:51;-7.80;1.00
4699;DHT22;33708;49.466;11.176;2022-12-18T05:36:17;-7.70;1.00
4699;DHT22;33708;49.466;11.176;2022-12-18T05:38:42;-7.80;1.00
4699;DHT22;33708;49.466;11.176;2022-12-18T05:41:09;-7.70;1.00
4699;DHT22;33708;49.466;11.176;2022-12-18T05:43:36;-7.80;1.00
4699;DHT22;33708;49.466;11.176;2022-12-18T05:46:07;-7.70;1.00
4699;DHT22;33708;49.466;11.176;2022-12-18T05:48:33;-7.50;1.00
4699;DHT22;33708;49.466;11.176;2022-12-18T05:51:10;-7.50;1.00
4699;DHT22;33708;49.466;11.176;2022-12-18T05:53:37;-7.30;1.00
4699;DHT22;33708;49.466;11.176;2022-12-18T05:56:04;-7.20;1.00
4699;DHT22;33708;49.466;11.176;2022-12-18T05:58:30;-7.40;1.00
4699;DHT22;33708;49.466;11.176;2022-12-18T06:00:57;-7.50;1.00
4699;DHT22;33708;49.466;11.176;2022-12-18T06:03:22;-7.20;1.00
4699;DHT22;33708;49.466;11.176;2022-12-18T06:05:48;-7.20;1.00
4699;DHT22;33708;49.466;11.176;2022-12-18T06:08:14;-7.20;1.00
4699;DHT22;33708;49.466;11.176;2022-12-18T06:10:40;-7.10;1.00
4699;DHT22;33708;49.466;11.176;2022-12-18T06:13:06;-7.10;1.00
4699;DHT22;33708;49.466;11.176;2022-12-18T06:15:32;-7.00;1.00
4699;DHT22;33708;49.466;11.176;2022-12-18T06:18:01;-6.90;1.00
4699;DHT22;33708;49.466;11.176;2022-12-18T06:20:32;-6.80;1.00
4699;DHT22;33708;49.466;11.176;2022-12-18T06:22:59;-6.70;1.00
4699;DHT22;33708;49.466;11.176;2022-12-18T06:25:25;-6.70;1.00
4699;DHT22;33708;49.466;11.176;2022-12-18T06:27:50;-6.60;1.00
4699;DHT22;33708;49.466;11.176;2022-12-18T06:30:16;-6.60;1.00
4699;DHT22;33708;49.466;11.176;2022-12-18T06:32:41;-6.50;1.00
4699;DHT22;33708;49.466;11.176;2022-12-18T06:35:07;-6.60;1.00
4699;DHT22;33708;49.466;11.176;2022-12-18T06:37:33;-6.80;1.00
4699;DHT22;33708;49.466;11.176;2022-12-18T06:39:59;-6.70;2.30
4699;DHT22;33708;49.466;11.176;2022-12-18T06:42:26;-6.60;1.60
4699;DHT22;33708;49.466;11.176;2022-12-18T06:44:51;-6.80;1.60
4699;DHT22;33708;49.466;11.176;2022-12-18T06:47:18;-6.50;4.00
4699;DHT22;33708;49.466;11.176;2022-12-18T06:49:43;-6.40;5.20
4699;DHT22;33708;49.466;11.176;2022-12-18T06:52:09;-6.30;7.00
4699;DHT22;33708;49.466;11.176;2022-12-18T06:54:35;-6.30;6.10
4699;DHT22;33708;49.466;11.176;2022-12-18T06:57:00;-6.20;8.20
4699;DHT22;33708;49.466;11.176;2022-12-18T06:59:26;-6.30;7.40
4699;DHT22;33708;49.466;11.176;2022-12-18T07:01:51;-6.30;7.10
4699;DHT22;33708;49.466;11.176;2022-12-18T07:04:17;-6.20;7.90
4699;DHT22;33708;49.466;11.176;2022-12-18T07:06:43;-6.20;9.30
4699;DHT22;33708;49.466;11.176;2022-12-18T07:09:08;-6.10;9.20
4699;DHT22;33708;49.466;11.176;2022-12-18T07:11:34;-6.20;9.30
4699;DHT22;33708;49.466;11.176;2022-12-18T07:13:59;-6.20;9.00
4699;DHT22;33708;49.466;11.176;2022-12-18T07:16:25;-6.10;11.00
4699;DHT22;33708;49.466;11.176;2022-12-18T07:18:54;-6.10;12.40
4699;DHT22;33708;49.466;11.176;2022-12-18T07:21:21;-6.00;12.70
4699;DHT22;33708;49.466;11.176;2022-12-18T07:23:47;-5.90;14.30
4699;DHT22;33708;49.466;11.176;2022-12-18T07:26:14;-5.80;15.40
4699;DHT22;33708;49.466;11.176;2022-12-18T07:28:41;-5.80;15.10
4699;DHT22;33708;49.466;11.176;2022-12-18T07:31:09;-5.70;17.30
4699;DHT22;33708;49.466;11.176;2022-12-18T07:33:35;-5.80;16.30
4699;DHT22;33708;49.466;11.176;2022-12-18T07:36:02;-5.80;17.30
4699;DHT22;33708;49.466;11.176;2022-12-18T07:38:29;-5.90;17.20
4699;DHT22;33708;49.466;11.176;2022-12-18T07:40:59;-5.90;19.70
4699;DHT22;33708;49.466;11.176;2022-12-18T07:43:25;-5.80;19.70
4699;DHT22;33708;49.466;11.176;2022-12-18T07:45:51;-5.80;21.30
4699;DHT22;33708;49.466;11.176;2022-12-18T07:48:16;-4.60;23.30
4699;DHT22;33708;49.466;11.176;2022-12-18T07:50:45;-5.50;22.10
4699;DHT22;33708;49.466;11.176;2022-12-18T07:53:10;-5.80;23.60
4699;DHT22;33708;49.466;11.176;2022-12-18T07:55:36;-5.40;24.70
4699;DHT22;33708;49.466;11.176;2022-12-18T07:58:03;-5.10;28.20
4699;DHT22;33708;49.466;11.176;2022-12-18T08:00:29;-5.00;27.90
4699;DHT22;33708;49.466;11.176;2022-12-18T08:02:55;-4.90;27.70
4699;DHT22;33708;49.466;11.176;2022-12-18T08:05:21;-4.70;29.40
4699;DHT22;33708;49.466;11.176;2022-12-18T08:07:47;-4.60;32.80
4699;DHT22;33708;49.466;11.176;2022-12-18T08:10:13;-4.70;32.50
4699;DHT22;33708;49.466;11.176;2022-12-18T08:12:38;-4.50;33.50
4699;DHT22;33708;49.466;11.176;2022-12-18T08:15:05;-4.40;35.30
4699;DHT22;33708;49.466;11.176;2022-12-18T08:17:31;-4.40;34.80
4699;DHT22;33708;49.466;11.176;2022-12-18T08:19:56;-4.20;36.40
4699;DHT22;33708;49.466;11.176;2022-12-18T08:22:22;-3.80;52.30
4699;DHT22;33708;49.466;11.176;2022-12-18T08:24:48;-3.70;47.20
4699;DHT22;33708;49.466;11.176;2022-12-18T08:27:13;-4.10;40.40
4699;DHT22;33708;49.466;11.176;2022-12-18T08:29:39;-3.90;40.90
4699;DHT22;33708;49.466;11.176;2022-12-18T08:32:04;-3.70;43.50
4699;DHT22;33708;49.466;11.176;2022-12-18T08:34:30;-3.90;56.00
4699;DHT22;33708;49.466;11.176;2022-12-18T08:36:56;-4.00;42.30
4699;DHT22;33708;49.466;11.176;2022-12-18T08:39:21;-3.90;44.60
4699;DHT22;33708;49.466;11.176;2022-12-18T08:41:47;-3.50;49.50
4699;DHT22;33708;49.466;11.176;2022-12-18T08:44:32;-3.40;51.70
4699;DHT22;33708;49.466;11.176;2022-12-18T08:47:06;-3.50;53.40
4699;DHT22;33708;49.466;11.176;2022-12-18T08:49:32;-3.40;57.90
4699;DHT22;33708;49.466;11.176;2022-12-18T08:51:58;-3.30;60.00
4699;DHT22;33708;49.466;11.176;2022-12-18T08:54:24;-3.10;59.70
4699;DHT22;33708;49.466;11.176;2022-12-18T08:56:50;-3.20;60.50
4699;DHT22;33708;49.466;11.176;2022-12-18T08:59:16;-2.90;67.70
4699;DHT22;33708;49.466;11.176;2022-12-18T09:01:42;-3.20;60.50
4699;DHT22;33708;49.466;11.176;2022-12-18T09:04:12;-3.00;63.40
4699;DHT22;33708;49.466;11.176;2022-12-18T09:06:38;-2.80;68.00
4699;DHT22;33708;49.466;11.176;2022-12-18T09:09:04;-2.80;66.20
4699;DHT22;33708;49.466;11.176;2022-12-18T09:11:31;-2.60;65.90
4699;DHT22;33708;49.466;11.176;2022-12-18T09:13:57;-2.70;69.60
4699;DHT22;33708;49.466;11.176;2022-12-18T09:16:28;-2.50;69.20
4699;DHT22;33708;49.466;11.176;2022-12-18T09:18:57;-2.50;72.90
4699;DHT22;33708;49.466;11.176;2022-12-18T09:21:28;-2.30;70.00
4699;DHT22;33708;49.466;11.176;2022-12-18T09:23:55;-2.20;73.50
4699;DHT22;33708;49.466;11.176;2022-12-18T09:26:22;-2.30;71.40
4699;DHT22;33708;49.466;11.176;2022-12-18T09:28:49;-2.10;69.30
4699;DHT22;33708;49.466;11.176;2022-12-18T09:31:15;-2.00;70.80
4699;DHT22;33708;49.466;11.176;2022-12-18T09:33:41;-2.30;67.10
4699;DHT22;33708;49.466;11.176;2022-12-18T09:36:09;-2.10;87.70
4699;DHT22;33708;49.466;11.176;2022-12-18T09:38:35;-2.10;70.60
4699;DHT22;33708;49.466;11.176;2022-12-18T09:44:12;-2.20;71.10
4699;DHT22;33708;49.466;11.176;2022-12-18T09:46:45;-2.30;68.40
4699;DHT22;33708;49.466;11.176;2022-12-18T09:49:16;-2.40;66.10
4699;DHT22;33708;49.466;11.176;2022-12-18T09:51:47;-2.60;65.50
4699;DHT22;33708;49.466;11.176;2022-12-18T09:54:20;-2.70;62.20
4699;DHT22;33708;49.466;11.176;2022-12-18T09:56:47;-2.80;60.60
4699;DHT22;33708;49.466;11.176;2022-12-18T09:59:30;-3.00;57.10
4699;DHT22;33708;49.466;11.176;2022-12-18T10:01:57;-3.30;54.60
4699;DHT22;33708;49.466;11.176;2022-12-18T10:04:24;-3.30;55.10
4699;DHT22;33708;49.466;11.176;2022-12-18T10:09:42;-3.50;54.10
4699;DHT22;33708;49.466;11.176;2022-12-18T10:12:14;-3.50;53.60
4699;DHT22;33708;49.466;11.176;2022-12-18T10:14:57;-3.30;56.80
4699;DHT22;33708;49.466;11.176;2022-12-18T10:25:23;-3.20;57.50
4699;DHT22;33708;49.466;11.176;2022-12-18T10:27:55;-3.10;59.70
4699;DHT22;33708;49.466;11.176;2022-12-18T10:30:23;-3.10;60.50
4699;DHT22;33708;49.466;11.176;2022-12-18T10:32:49;-3.00;59.80
4699;DHT22;33708;49.466;11.176;2022-12-18T10:35:24;-3.00;61.50
4699;DHT22;33708;49.466;11.176;2022-12-18T10:38:21;-2.80;64.00
4699;DHT22;33708;49.466;11.176;2022-12-18T10:46:04;-2.90;64.30
4699;DHT22;33708;49.466;11.176;2022-12-18T10:48:32;-2.70;66.60
4699;DHT22;33708;49.466;11.176;2022-12-18T10:50:58;-2.50;72.40
4699;DHT22;33708;49.466;11.176;2022-12-18T10:53:29;-2.30;70.80
4699;DHT22;33708;49.466;11.176;2022-12-18T10:56:00;-2.20;72.50
4699;DHT22;33708;49.466;11.176;2022-12-18T10:58:33;-2.00;72.00
4699;DHT22;33708;49.466;11.176;2022-12-18T11:01:16;-2.20;68.30
4699;DHT22;33708;49.466;11.176;2022-12-18T11:03:58;-1.90;74.30
4699;DHT22;33708;49.466;11.176;2022-12-18T11:06:25;-2.00;71.50
4699;DHT22;33708;49.466;11.176;2022-12-18T11:09:32;-2.00;67.30
4699;DHT22;33708;49.466;11.176;2022-12-18T11:11:55;-2.10;66.80
4699;DHT22;33708;49.466;11.176;2022-12-18T11:14:35;-2.30;65.20
4699;DHT22;33708;49.466;11.176;2022-12-18T11:17:19;-2.00;66.30
4699;DHT22;33708;49.466;11.176;2022-12-18T11:19:45;-1.70;71.80
4699;DHT22;33708;49.466;11.176;2022-12-18T11:22:23;-1.40;71.40
4699;DHT22;33708;49.466;11.176;2022-12-18T11:27:26;-1.40;73.50
4699;DHT22;33708;49.466;11.176;2022-12-18T11:30:20;-1.50;74.50
4699;DHT22;33708;49.466;11.176;2022-12-18T11:32:50;-1.50;72.40
4699;DHT22;33708;49.466;11.176;2022-12-18T11:35:21;-1.40;72.60
4699;DHT22;33708;49.466;11.176;2022-12-18T11:38:02;-1.60;67.10
4699;DHT22;33708;49.466;11.176;2022-12-18T11:40:35;-1.70;69.30
4699;DHT22;33708;49.466;11.176;2022-12-18T11:43:10;-1.70;65.10
4699;DHT22;33708;49.466;11.176;2022-12-18T11:46:05;-1.80;67.20
4699;DHT22;33708;49.466;11.176;2022-12-18T11:49:01;-1.60;70.60
4699;DHT22;33708;49.466;11.176;2022-12-18T11:51:41;-1.50;71.30
4699;DHT22;33708;49.466;11.176;2022-12-18T11:54:14;-1.30;71.20
4699;DHT22;33708;49.466;11.176;2022-12-18T11:56:55;-1.50;67.20
4699;DHT22;33708;49.466;11.176;2022-12-18T12:02:23;-1.60;66.70
4699;DHT22;33708;49.466;11.176;2022-12-18T12:07:57;-1.80;65.50
4699;DHT22;33708;49.466;11.176;2022-12-18T12:16:37;-1.90;67.30
4699;DHT22;33708;49.466;11.176;2022-12-18T12:21:42;-2.10;60.80
4699;DHT22;33708;49.466;11.176;2022-12-18T12:26:59;-2.00;64.10
4699;DHT22;33708;49.466;11.176;2022-12-18T12:29:36;-1.90;66.30
4699;DHT22;33708;49.466;11.176;2022-12-18T12:32:25;-1.90;65.30
4699;DHT22;33708;49.466;11.176;2022-12-18T12:38:01;-1.30;73.50
4699;DHT22;33708;49.466;11.176;2022-12-18T12:40:35;-1.60;72.60
4699;DHT22;33708;49.466;11.176;2022-12-18T12:43:25;-1.60;70.30
4699;DHT22;33708;49.466;11.176;2022-12-18T12:45:57;-1.50;72.90
4699;DHT22;33708;49.466;11.176;2022-12-18T12:48:33;-1.30;72.20
4699;DHT22;33708;49.466;11.176;2022-12-18T12:51:10;-1.50;72.10
4699;DHT22;33708;49.466;11.176;2022-12-18T12:53:37;-1.40;73.80
4699;DHT22;33708;49.466;11.176;2022-12-18T12:56:05;-1.50;70.30
4699;DHT22;33708;49.466;11.176;2022-12-18T13:01:58;-1.50;69.70
4699;DHT22;33708;49.466;11.176;2022-12-18T13:04:47;-1.40;70.80
4699;DHT22;33708;49.466;11.176;2022-12-18T13:12:50;-1.70;66.20
4699;DHT22;33708;49.466;11.176;2022-12-18T13:23:33;-1.60;70.60
4699;DHT22;33708;49.466;11.176;2022-12-18T13:34:29;-1.80;64.70
4699;DHT22;33708;49.466;11.176;2022-12-18T13:39:59;-1.70;66.70
4699;DHT22;33708;49.466;11.176;2022-12-18T13:42:31;-1.80;64.30
4699;DHT22;33708;49.466;11.176;2022-12-18T13:48:04;-1.90;63.20
4699;DHT22;33708;49.466;11.176;2022-12-18T13:50:29;-1.90;62.90
4699;DHT22;33708;49.466;11.176;2022-12-18T13:52:55;-1.80;65.80
4699;DHT22;33708;49.466;11.176;2022-12-18T13:55:22;-1.80;67.10
4699;DHT22;33708;49.466;11.176;2022-12-18T13:57:48;-2.10;61.40
4699;DHT22;33708;49.466;11.176;2022-12-18T14:02:46;-2.10;62.60
4699;DHT22;33708;49.466;11.176;2022-12-18T14:05:24;-2.20;62.10
4699;DHT22;33708;49.466;11.176;2022-12-18T14:07:49;-2.20;61.60
4699;DHT22;33708;49.466;11.176;2022-12-18T14:10:16;-2.20;63.80
4699;DHT22;33708;49.466;11.176;2022-12-18T14:12:47;-2.20;61.20
4699;DHT22;33708;49.466;11.176;2022-12-18T14:17:57;-2.40;59.20
4699;DHT22;33708;49.466;11.176;2022-12-18T14:20:26;-2.40;60.10
4699;DHT22;33708;49.466;11.176;2022-12-18T14:22:52;-2.40;60.70
4699;DHT22;33708;49.466;11.176;2022-12-18T14:25:22;-2.20;61.00
4699;DHT22;33708;49.466;11.176;2022-12-18T14:28:12;-2.60;61.20
4699;DHT22;33708;49.466;11.176;2022-12-18T14:30:44;-2.60;59.40
4699;DHT22;33708;49.466;11.176;2022-12-18T14:33:15;-2.70;58.10
4699;DHT22;33708;49.466;11.176;2022-12-18T14:36:02;-2.70;58.00
4699;DHT22;33708;49.466;11.176;2022-12-18T14:38:39;-2.70;57.10
4699;DHT22;33708;49.466;11.176;2022-12-18T14:41:16;-2.70;58.80
4699;DHT22;33708;49.466;11.176;2022-12-18T14:43:43;-2.60;60.20
4699;DHT22;33708;49.466;11.176;2022-12-18T14:46:37;-2.60;59.10
4699;DHT22;33708;49.466;11.176;2022-12-18T14:49:17;-2.70;57.90
4699;DHT22;33708;49.466;11.176;2022-12-18T14:51:56;-2.70;59.30
4699;DHT22;33708;49.466;11.176;2022-12-18T14:54:24;-2.70;59.30
4699;DHT22;33708;49.466;11.176;2022-12-18T14:57:04;-2.80;57.40
4699;DHT22;33708;49.466;11.176;2022-12-18T14:59:31;-2.80;58.30
4699;DHT22;33708;49.466;11.176;2022-12-18T15:02:18;-2.90;57.50
4699;DHT22;33708;49.466;11.176;2022-12-18T15:04:45;-3.00;58.20
4699;DHT22;33708;49.466;11.176;2022-12-18T15:07:18;-3.10;57.80
4699;DHT22;33708;49.466;11.176;2022-12-18T15:20:43;-3.50;58.00
4699;DHT22;33708;49.466;11.176;2022-12-18T15:26:11;-3.60;58.80
4699;DHT22;33708;49.466;11.176;2022-12-18T15:28:39;-3.50;59.70
4699;DHT22;33708;49.466;11.176;2022-12-18T15:33:36;-3.70;60.00
4699;DHT22;33708;49.466;11.176;2022-12-18T15:36:05;-3.70;59.00
4699;DHT22;33708;49.466;11.176;2022-12-18T15:38:33;-3.70;59.40
4699;DHT22;33708;49.466;11.176;2022-12-18T15:40:59;-3.70;61.80
4699;DHT22;33708;49.466;11.176;2022-12-18T15:43:25;-3.70;62.40
4699;DHT22;33708;49.466;11.176;2022-12-18T15:46:05;-3.80;60.00
4699;DHT22;33708;49.466;11.176;2022-12-18T15:48:33;-3.80;59.40
4699;DHT22;33708;49.466;11.176;2022-12-18T15:51:00;-3.80;61.40
4699;DHT22;33708;49.466;11.176;2022-12-18T15:53:30;-3.80;60.50
4699;DHT22;33708;49.466;11.176;2022-12-18T15:55:58;-3.80;61.20
4699;DHT22;33708;49.466;11.176;2022-12-18T15:58:42;-3.80;61.60
4699;DHT22;33708;49.466;11.176;2022-12-18T16:01:09;-3.80;60.80
4699;DHT22;33708;49.466;11.176;2022-12-18T16:03:35;-3.80;62.10
4699;DHT22;33708;49.466;11.176;2022-12-18T16:06:01;-3.80;61.00
4699;DHT22;33708;49.466;11.176;2022-12-18T16:08:28;-3.70;63.90
4699;DHT22;33708;49.466;11.176;2022-12-18T16:10:56;-3.80;60.90
4699;DHT22;33708;49.466;11.176;2022-12-18T16:13:22;-3.80;76.40
4699;DHT22;33708;49.466;11.176;2022-12-18T16:15:48;-3.90;59.20
4699;DHT22;33708;49.466;11.176;2022-12-18T16:18:13;-3.80;65.60
4699;DHT22;33708;49.466;11.176;2022-12-18T16:20:39;-3.80;66.40
4699;DHT22;33708;49.466;11.176;2022-12-18T16:23:05;-3.90;59.80
4699;DHT22;33708;49.466;11.176;2022-12-18T16:25:31;-3.90;61.20
4699;DHT22;33708;49.466;11.176;2022-12-18T16:27:57;-3.90;66.00
4699;DHT22;33708;49.466;11.176;2022-12-18T16:30:25;-3.90;71.70
4699;DHT22;33708;49.466;11.176;2022-12-18T16:32:56;-3.80;77.20
4699;DHT22;33708;49.466;11.176;2022-12-18T16:35:24;-3.80;82.00
4699;DHT22;33708;49.466;11.176;2022-12-18T16:37:50;-3.80;81.10
4699;DHT22;33708;49.466;11.176;2022-12-18T16:40:16;-3.80;77.90
4699;DHT22;33708;49.466;11.176;2022-12-18T16:42:44;-3.80;78.00
4699;DHT22;33708;49.466;11.176;2022-12-18T16:45:14;-4.00;71.10
4699;DHT22;33708;49.466;11.176;2022-12-18T16:47:40;-3.80;92.40
4699;DHT22;33708;49.466;11.176;2022-12-18T16:50:06;-3.90;85.10
4699;DHT22;33708;49.466;11.176;2022-12-18T16:52:33;-4.00;76.50
4699;DHT22;33708;49.466;11.176;2022-12-18T16:54:58;-3.90;76.10
4699;DHT22;33708;49.466;11.176;2022-12-18T16:57:24;-4.00;68.20
4699;DHT22;33708;49.466;11.176;2022-12-18T16:59:50;-4.10;66.90
4699;DHT22;33708;49.466;11.176;2022-12-18T17:02:19;-4.00;69.40
4699;DHT22;33708;49.466;11.176;2022-12-18T17:04:45;-4.00;71.70
4699;DHT22;33708;49.466;11.176;2022-12-18T17:07:11;-4.00;68.20
4699;DHT22;33708;49.466;11.176;2022-12-18T17:09:37;-4.00;66.80
4699;DHT22;33708;49.466;11.176;2022-12-18T17:12:03;-4.00;66.20
4699;DHT22;33708;49.466;11.176;2022-12-18T17:14:31;-4.00;65.40
4699;DHT22;33708;49.466;11.176;2022-12-18T17:16:57;-4.00;63.30
4699;DHT22;33708;49.466;11.176;2022-12-18T17:19:25;-4.10;63.30
4699;DHT22;33708;49.466;11.176;2022-12-18T17:21:51;-3.90;64.10
4699;DHT22;33708;49.466;11.176;2022-12-18T17:24:17;-4.10;63.50
4699;DHT22;33708;49.466;11.176;2022-12-18T17:26:43;-4.00;66.50
4699;DHT22;33708;49.466;11.176;2022-12-18T17:29:12;-4.00;66.10
4699;DHT22;33708;49.466;11.176;2022-12-18T17:31:38;-3.80;67.40
4699;DHT22;33708;49.466;11.176;2022-12-18T17:34:04;-3.90;65.20
4699;DHT22;33708;49.466;11.176;2022-12-18T17:36:30;-3.80;67.30
4699;DHT22;33708;49.466;11.176;2022-12-18T17:38:58;-3.70;73.10
4699;DHT22;33708;49.466;11.176;2022-12-18T17:41:25;-3.80;62.10
4699;DHT22;33708;49.466;11.176;2022-12-18T17:43:56;-3.90;58.70
4699;DHT22;33708;49.466;11.176;2022-12-18T17:46:23;-3.90;62.80
4699;DHT22;33708;49.466;11.176;2022-12-18T17:48:50;-4.00;62.50
4699;DHT22;33708;49.466;11.176;2022-12-18T17:51:17;-4.10;59.30
4699;DHT22;33708;49.466;11.176;2022-12-18T17:53:43;-4.20;56.60